Terminal Aerodrome Forecast
Issued by NWS

Home | Current Version | Previous Version | Graphics & Text | Print | Product List | Glossary On
Versions: 1 2 3 4 5 6 7 8 9 10 11 12 13 14 15 16 17
000
FTUS42 KMHX 161132
TAFISO
TAF
KISO 161132Z 1612/1712 05008KT P6SM -DZ SCT040 OVC090
     FM161500 08011G17KT P6SM SCT035 OVC090
     FM162300 07006KT P6SM SCT025 OVC050
      AMD LTD TO CLD VIS AND WIND=

USA.gov is the U.S. government's official web portal to all federal, state and local government web resources and services.